sensor_id;sensor_type;location;lat;lon;timestamp;P1;durP1;ratioP1;P2;durP2;ratioP2
44536;SDS011;30245;51.966;6.292;2023-11-22T00:00:22;8.87;;;5.73;;
44536;SDS011;30245;51.966;6.292;2023-11-22T00:02:48;5.67;;;5.17;;
44536;SDS011;30245;51.966;6.292;2023-11-22T00:05:13;11.87;;;6.43;;
44536;SDS011;30245;51.966;6.292;2023-11-22T00:07:39;8.73;;;6.90;;
44536;SDS011;30245;51.966;6.292;2023-11-22T00:10:05;7.57;;;5.50;;
44536;SDS011;30245;51.966;6.292;2023-11-22T00:12:31;9.87;;;5.50;;
44536;SDS011;30245;51.966;6.292;2023-11-22T00:15:02;7.20;;;5.60;;
44536;SDS011;30245;51.966;6.292;2023-11-22T00:17:29;7.10;;;5.00;;
44536;SDS011;30245;51.966;6.292;2023-11-22T00:19:55;7.97;;;5.67;;
44536;SDS011;30245;51.966;6.292;2023-11-22T00:22:20;8.47;;;6.03;;
44536;SDS011;30245;51.966;6.292;2023-11-22T00:24:46;6.87;;;6.07;;
44536;SDS011;30245;51.966;6.292;2023-11-22T00:27:15;7.75;;;5.72;;
44536;SDS011;30245;51.966;6.292;2023-11-22T00:29:41;7.03;;;5.37;;
44536;SDS011;30245;51.966;6.292;2023-11-22T00:32:06;10.47;;;6.30;;
44536;SDS011;30245;51.966;6.292;2023-11-22T00:34:32;8.43;;;6.37;;
44536;SDS011;30245;51.966;6.292;2023-11-22T00:36:58;6.83;;;5.57;;
44536;SDS011;30245;51.966;6.292;2023-11-22T00:39:23;7.77;;;6.57;;
44536;SDS011;30245;51.966;6.292;2023-11-22T00:41:49;8.63;;;5.80;;
44536;SDS011;30245;51.966;6.292;2023-11-22T00:44:15;9.67;;;6.20;;
44536;SDS011;30245;51.966;6.292;2023-11-22T00:46:40;7.10;;;5.47;;
44536;SDS011;30245;51.966;6.292;2023-11-22T00:49:07;8.23;;;6.27;;
44536;SDS011;30245;51.966;6.292;2023-11-22T00:51:35;10.02;;;5.82;;
44536;SDS011;30245;51.966;6.292;2023-11-22T00:54:01;6.73;;;5.83;;
44536;SDS011;30245;51.966;6.292;2023-11-22T00:56:26;6.33;;;5.07;;
44536;SDS011;30245;51.966;6.292;2023-11-22T00:58:52;5.63;;;4.57;;
44536;SDS011;30245;51.966;6.292;2023-11-22T01:01:19;9.07;;;6.07;;
44536;SDS011;30245;51.966;6.292;2023-11-22T01:03:45;7.93;;;5.67;;
44536;SDS011;30245;51.966;6.292;2023-11-22T01:06:11;8.43;;;6.07;;
44536;SDS011;30245;51.966;6.292;2023-11-22T01:08:37;9.53;;;7.03;;
44536;SDS011;30245;51.966;6.292;2023-11-22T01:11:03;6.67;;;5.63;;
44536;SDS011;30245;51.966;6.292;2023-11-22T01:13:29;7.40;;;5.73;;
44536;SDS011;30245;51.966;6.292;2023-11-22T01:15:55;11.57;;;6.17;;
44536;SDS011;30245;51.966;6.292;2023-11-22T01:18:20;7.53;;;6.00;;
44536;SDS011;30245;51.966;6.292;2023-11-22T01:20:46;8.03;;;6.17;;
44536;SDS011;30245;51.966;6.292;2023-11-22T01:23:12;8.37;;;5.10;;
44536;SDS011;30245;51.966;6.292;2023-11-22T01:25:37;7.37;;;5.17;;
44536;SDS011;30245;51.966;6.292;2023-11-22T01:28:03;7.00;;;6.10;;
44536;SDS011;30245;51.966;6.292;2023-11-22T01:30:29;6.50;;;5.23;;
44536;SDS011;30245;51.966;6.292;2023-11-22T01:32:54;7.90;;;5.43;;
44536;SDS011;30245;51.966;6.292;2023-11-22T01:35:22;8.27;;;5.53;;
44536;SDS011;30245;51.966;6.292;2023-11-22T01:37:48;7.30;;;5.27;;
44536;SDS011;30245;51.966;6.292;2023-11-22T01:40:14;6.00;;;4.83;;
44536;SDS011;30245;51.966;6.292;2023-11-22T01:42:39;8.63;;;4.67;;
44536;SDS011;30245;51.966;6.292;2023-11-22T01:45:08;6.87;;;5.07;;
44536;SDS011;30245;51.966;6.292;2023-11-22T01:47:35;7.47;;;5.30;;
44536;SDS011;30245;51.966;6.292;2023-11-22T01:50:01;8.07;;;5.60;;
44536;SDS011;30245;51.966;6.292;2023-11-22T01:52:30;8.40;;;5.10;;
44536;SDS011;30245;51.966;6.292;2023-11-22T01:54:56;7.20;;;4.67;;
44536;SDS011;30245;51.966;6.292;2023-11-22T01:57:21;6.77;;;5.47;;
44536;SDS011;30245;51.966;6.292;2023-11-22T01:59:47;5.47;;;4.73;;
44536;SDS011;30245;51.966;6.292;2023-11-22T02:02:13;7.50;;;5.30;;
44536;SDS011;30245;51.966;6.292;2023-11-22T02:04:39;10.17;;;5.70;;
44536;SDS011;30245;51.966;6.292;2023-11-22T02:07:04;6.00;;;5.30;;
44536;SDS011;30245;51.966;6.292;2023-11-22T02:09:30;9.07;;;6.10;;
44536;SDS011;30245;51.966;6.292;2023-11-22T02:11:57;7.67;;;5.33;;
44536;SDS011;30245;51.966;6.292;2023-11-22T02:14:23;6.13;;;5.27;;
44536;SDS011;30245;51.966;6.292;2023-11-22T02:16:48;6.63;;;5.87;;
44536;SDS011;30245;51.966;6.292;2023-11-22T02:19:15;6.20;;;4.83;;
44536;SDS011;30245;51.966;6.292;2023-11-22T02:21:42;10.27;;;4.77;;
44536;SDS011;30245;51.966;6.292;2023-11-22T02:24:08;9.00;;;6.57;;
44536;SDS011;30245;51.966;6.292;2023-11-22T02:26:34;8.00;;;5.33;;
44536;SDS011;30245;51.966;6.292;2023-11-22T02:29:01;7.33;;;5.83;;
44536;SDS011;30245;51.966;6.292;2023-11-22T02:31:29;9.03;;;5.70;;
44536;SDS011;30245;51.966;6.292;2023-11-22T02:33:55;8.43;;;5.23;;
44536;SDS011;30245;51.966;6.292;2023-11-22T02:36:20;8.80;;;5.33;;
44536;SDS011;30245;51.966;6.292;2023-11-22T02:38:47;6.80;;;5.53;;
44536;SDS011;30245;51.966;6.292;2023-11-22T02:41:13;8.67;;;5.63;;
44536;SDS011;30245;51.966;6.292;2023-11-22T02:43:38;10.43;;;6.20;;
44536;SDS011;30245;51.966;6.292;2023-11-22T02:46:04;6.73;;;5.30;;
44536;SDS011;30245;51.966;6.292;2023-11-22T02:48:30;8.43;;;5.30;;
44536;SDS011;30245;51.966;6.292;2023-11-22T02:50:56;10.33;;;5.03;;
44536;SDS011;30245;51.966;6.292;2023-11-22T02:53:21;11.43;;;5.60;;
44536;SDS011;30245;51.966;6.292;2023-11-22T02:55:47;12.60;;;6.87;;
44536;SDS011;30245;51.966;6.292;2023-11-22T02:58:12;10.13;;;5.27;;
44536;SDS011;30245;51.966;6.292;2023-11-22T03:00:41;6.63;;;4.97;;
44536;SDS011;30245;51.966;6.292;2023-11-22T03:03:06;7.57;;;6.07;;
44536;SDS011;30245;51.966;6.292;2023-11-22T03:05:35;7.63;;;4.95;;
44536;SDS011;30245;51.966;6.292;2023-11-22T03:08:02;6.33;;;4.40;;
44536;SDS011;30245;51.966;6.292;2023-11-22T03:10:28;8.23;;;5.17;;
44536;SDS011;30245;51.966;6.292;2023-11-22T03:12:55;8.37;;;5.40;;
44536;SDS011;30245;51.966;6.292;2023-11-22T03:15:20;8.33;;;5.23;;
44536;SDS011;30245;51.966;6.292;2023-11-22T03:17:46;10.83;;;5.33;;
44536;SDS011;30245;51.966;6.292;2023-11-22T03:20:13;8.00;;;5.33;;
44536;SDS011;30245;51.966;6.292;2023-11-22T03:22:40;7.40;;;4.43;;
44536;SDS011;30245;51.966;6.292;2023-11-22T03:25:09;6.63;;;4.25;;
44536;SDS011;30245;51.966;6.292;2023-11-22T03:27:37;5.40;;;4.57;;
44536;SDS011;30245;51.966;6.292;2023-11-22T03:30:03;6.90;;;5.07;;
44536;SDS011;30245;51.966;6.292;2023-11-22T03:32:30;6.37;;;4.67;;
44536;SDS011;30245;51.966;6.292;2023-11-22T03:34:55;6.90;;;4.60;;
44536;SDS011;30245;51.966;6.292;2023-11-22T03:37:22;7.07;;;4.80;;
44536;SDS011;30245;51.966;6.292;2023-11-22T03:39:48;6.70;;;5.17;;
44536;SDS011;30245;51.966;6.292;2023-11-22T03:42:14;8.40;;;6.00;;
44536;SDS011;30245;51.966;6.292;2023-11-22T03:44:41;7.80;;;5.67;;
44536;SDS011;30245;51.966;6.292;2023-11-22T03:47:07;6.87;;;4.83;;
44536;SDS011;30245;51.966;6.292;2023-11-22T03:49:33;5.73;;;4.70;;
44536;SDS011;30245;51.966;6.292;2023-11-22T03:51:58;8.40;;;5.40;;
44536;SDS011;30245;51.966;6.292;2023-11-22T03:54:24;7.43;;;4.83;;
44536;SDS011;30245;51.966;6.292;2023-11-22T03:56:49;6.93;;;4.70;;
44536;SDS011;30245;51.966;6.292;2023-11-22T03:59:15;7.03;;;4.57;;
44536;SDS011;30245;51.966;6.292;2023-11-22T04:01:41;8.33;;;4.50;;
44536;SDS011;30245;51.966;6.292;2023-11-22T04:04:06;7.37;;;5.57;;
44536;SDS011;30245;51.966;6.292;2023-11-22T04:06:34;8.27;;;5.28;;
44536;SDS011;30245;51.966;6.292;2023-11-22T04:09:00;7.13;;;5.17;;
44536;SDS011;30245;51.966;6.292;2023-11-22T04:11:26;6.63;;;4.97;;
44536;SDS011;30245;51.966;6.292;2023-11-22T04:13:54;7.00;;;5.20;;
44536;SDS011;30245;51.966;6.292;2023-11-22T04:16:20;6.77;;;5.57;;
44536;SDS011;30245;51.966;6.292;2023-11-22T04:18:45;8.03;;;5.80;;
44536;SDS011;30245;51.966;6.292;2023-11-22T04:21:11;7.23;;;4.50;;
44536;SDS011;30245;51.966;6.292;2023-11-22T04:23:37;6.87;;;4.70;;
44536;SDS011;30245;51.966;6.292;2023-11-22T04:26:02;8.50;;;4.23;;
44536;SDS011;30245;51.966;6.292;2023-11-22T04:28:28;7.90;;;5.03;;
44536;SDS011;30245;51.966;6.292;2023-11-22T04:30:57;8.30;;;5.95;;
44536;SDS011;30245;51.966;6.292;2023-11-22T04:33:23;7.70;;;5.17;;
44536;SDS011;30245;51.966;6.292;2023-11-22T04:35:49;7.10;;;5.07;;
44536;SDS011;30245;51.966;6.292;2023-11-22T04:38:15;5.90;;;4.87;;
44536;SDS011;30245;51.966;6.292;2023-11-22T04:40:42;9.37;;;4.93;;
44536;SDS011;30245;51.966;6.292;2023-11-22T04:43:08;6.73;;;5.43;;
44536;SDS011;30245;51.966;6.292;2023-11-22T04:45:34;11.03;;;4.20;;
44536;SDS011;30245;51.966;6.292;2023-11-22T04:48:00;5.67;;;5.07;;
44536;SDS011;30245;51.966;6.292;2023-11-22T04:50:25;8.90;;;5.17;;
44536;SDS011;30245;51.966;6.292;2023-11-22T04:52:51;6.77;;;3.90;;
44536;SDS011;30245;51.966;6.292;2023-11-22T04:55:17;9.07;;;4.63;;
44536;SDS011;30245;51.966;6.292;2023-11-22T04:57:45;6.33;;;5.13;;
44536;SDS011;30245;51.966;6.292;2023-11-22T05:00:12;7.80;;;4.53;;
44536;SDS011;30245;51.966;6.292;2023-11-22T05:02:38;8.23;;;5.33;;
44536;SDS011;30245;51.966;6.292;2023-11-22T05:05:05;7.23;;;4.57;;
44536;SDS011;30245;51.966;6.292;2023-11-22T05:07:31;6.60;;;5.40;;
44536;SDS011;30245;51.966;6.292;2023-11-22T05:09:57;5.53;;;3.90;;
44536;SDS011;30245;51.966;6.292;2023-11-22T05:12:22;5.73;;;3.93;;
44536;SDS011;30245;51.966;6.292;2023-11-22T05:14:48;6.30;;;4.43;;
44536;SDS011;30245;51.966;6.292;2023-11-22T05:17:14;7.80;;;5.40;;
44536;SDS011;30245;51.966;6.292;2023-11-22T05:19:39;7.07;;;5.73;;
44536;SDS011;30245;51.966;6.292;2023-11-22T05:22:05;6.67;;;5.40;;
44536;SDS011;30245;51.966;6.292;2023-11-22T05:24:31;8.60;;;6.13;;
44536;SDS011;30245;51.966;6.292;2023-11-22T05:26:56;9.17;;;4.97;;
44536;SDS011;30245;51.966;6.292;2023-11-22T05:29:22;8.73;;;4.80;;
44536;SDS011;30245;51.966;6.292;2023-11-22T05:31:48;9.33;;;4.60;;
44536;SDS011;30245;51.966;6.292;2023-11-22T05:34:13;7.27;;;5.40;;
44536;SDS011;30245;51.966;6.292;2023-11-22T05:36:39;7.20;;;4.67;;
44536;SDS011;30245;51.966;6.292;2023-11-22T05:39:05;7.70;;;4.53;;
44536;SDS011;30245;51.966;6.292;2023-11-22T05:41:31;9.50;;;5.53;;
44536;SDS011;30245;51.966;6.292;2023-11-22T05:43:57;9.20;;;5.87;;
44536;SDS011;30245;51.966;6.292;2023-11-22T05:46:23;8.67;;;5.13;;
44536;SDS011;30245;51.966;6.292;2023-11-22T05:48:52;8.83;;;5.80;;
44536;SDS011;30245;51.966;6.292;2023-11-22T05:53:44;9.03;;;5.70;;
44536;SDS011;30245;51.966;6.292;2023-11-22T05:56:10;8.07;;;5.00;;
44536;SDS011;30245;51.966;6.292;2023-11-22T05:58:37;6.60;;;4.27;;
44536;SDS011;30245;51.966;6.292;2023-11-22T06:01:03;6.37;;;4.07;;
44536;SDS011;30245;51.966;6.292;2023-11-22T06:03:30;9.53;;;5.17;;
44536;SDS011;30245;51.966;6.292;2023-11-22T06:05:56;7.07;;;4.60;;
44536;SDS011;30245;51.966;6.292;2023-11-22T06:08:22;10.47;;;5.47;;
44536;SDS011;30245;51.966;6.292;2023-11-22T06:10:48;8.97;;;5.23;;
44536;SDS011;30245;51.966;6.292;2023-11-22T06:13:14;6.43;;;4.63;;
44536;SDS011;30245;51.966;6.292;2023-11-22T06:15:39;10.10;;;5.20;;
44536;SDS011;30245;51.966;6.292;2023-11-22T06:18:05;5.57;;;4.53;;
44536;SDS011;30245;51.966;6.292;2023-11-22T06:20:31;11.03;;;6.57;;
44536;SDS011;30245;51.966;6.292;2023-11-22T06:22:57;6.87;;;5.23;;
44536;SDS011;30245;51.966;6.292;2023-11-22T06:25:22;5.70;;;4.07;;
44536;SDS011;30245;51.966;6.292;2023-11-22T06:27:48;7.43;;;4.17;;
44536;SDS011;30245;51.966;6.292;2023-11-22T06:30:14;7.23;;;4.23;;
44536;SDS011;30245;51.966;6.292;2023-11-22T06:32:39;8.47;;;4.97;;
44536;SDS011;30245;51.966;6.292;2023-11-22T06:35:07;7.53;;;5.57;;
44536;SDS011;30245;51.966;6.292;2023-11-22T06:37:34;6.57;;;4.70;;
44536;SDS011;30245;51.966;6.292;2023-11-22T06:39:59;5.83;;;4.60;;
44536;SDS011;30245;51.966;6.292;2023-11-22T06:42:25;5.97;;;4.63;;
44536;SDS011;30245;51.966;6.292;2023-11-22T06:44:51;7.47;;;4.27;;
44536;SDS011;30245;51.966;6.292;2023-11-22T06:47:18;7.63;;;4.87;;
44536;SDS011;30245;51.966;6.292;2023-11-22T06:49:44;5.17;;;4.03;;
44536;SDS011;30245;51.966;6.292;2023-11-22T06:52:10;7.20;;;4.53;;
44536;SDS011;30245;51.966;6.292;2023-11-22T06:54:35;4.73;;;3.40;;
44536;SDS011;30245;51.966;6.292;2023-11-22T06:57:04;6.50;;;4.03;;
44536;SDS011;30245;51.966;6.292;2023-11-22T06:59:29;5.90;;;4.27;;
44536;SDS011;30245;51.966;6.292;2023-11-22T07:01:55;6.10;;;4.07;;
44536;SDS011;30245;51.966;6.292;2023-11-22T07:04:23;6.95;;;4.28;;
44536;SDS011;30245;51.966;6.292;2023-11-22T07:06:49;6.33;;;4.97;;
44536;SDS011;30245;51.966;6.292;2023-11-22T07:09:15;5.70;;;4.27;;
44536;SDS011;30245;51.966;6.292;2023-11-22T07:11:40;5.47;;;3.60;;
44536;SDS011;30245;51.966;6.292;2023-11-22T07:14:09;5.25;;;3.33;;
44536;SDS011;30245;51.966;6.292;2023-11-22T07:16:34;5.77;;;3.60;;
44536;SDS011;30245;51.966;6.292;2023-11-22T07:19:00;4.87;;;3.47;;
44536;SDS011;30245;51.966;6.292;2023-11-22T07:21:32;7.70;;;4.10;;
44536;SDS011;30245;51.966;6.292;2023-11-22T07:23:58;7.83;;;3.93;;
44536;SDS011;30245;51.966;6.292;2023-11-22T07:26:24;8.23;;;4.57;;
44536;SDS011;30245;51.966;6.292;2023-11-22T07:28:52;8.23;;;5.83;;
44536;SDS011;30245;51.966;6.292;2023-11-22T07:31:18;7.93;;;5.13;;
44536;SDS011;30245;51.966;6.292;2023-11-22T07:33:44;6.57;;;3.60;;
44536;SDS011;30245;51.966;6.292;2023-11-22T07:36:10;8.20;;;4.73;;
44536;SDS011;30245;51.966;6.292;2023-11-22T07:38:39;6.97;;;4.07;;
44536;SDS011;30245;51.966;6.292;2023-11-22T07:41:06;8.70;;;5.07;;
44536;SDS011;30245;51.966;6.292;2023-11-22T07:43:33;7.67;;;5.10;;
44536;SDS011;30245;51.966;6.292;2023-11-22T07:45:58;9.13;;;5.77;;
44536;SDS011;30245;51.966;6.292;2023-11-22T07:48:26;7.97;;;5.27;;
44536;SDS011;30245;51.966;6.292;2023-11-22T07:50:52;8.03;;;5.57;;
44536;SDS011;30245;51.966;6.292;2023-11-22T07:53:18;10.40;;;6.30;;
44536;SDS011;30245;51.966;6.292;2023-11-22T07:55:43;9.17;;;6.03;;
44536;SDS011;30245;51.966;6.292;2023-11-22T07:58:09;10.03;;;6.50;;
44536;SDS011;30245;51.966;6.292;2023-11-22T08:00:35;9.97;;;5.73;;
44536;SDS011;30245;51.966;6.292;2023-11-22T08:03:02;7.97;;;5.50;;
44536;SDS011;30245;51.966;6.292;2023-11-22T08:05:28;9.07;;;5.93;;
44536;SDS011;30245;51.966;6.292;2023-11-22T08:08:04;9.30;;;5.57;;
44536;SDS011;30245;51.966;6.292;2023-11-22T08:10:32;10.70;;;6.37;;
44536;SDS011;30245;51.966;6.292;2023-11-22T08:13:01;7.97;;;5.65;;
44536;SDS011;30245;51.966;6.292;2023-11-22T08:15:28;9.40;;;6.17;;
44536;SDS011;30245;51.966;6.292;2023-11-22T08:17:54;8.50;;;5.63;;
44536;SDS011;30245;51.966;6.292;2023-11-22T08:20:20;9.57;;;5.63;;
44536;SDS011;30245;51.966;6.292;2023-11-22T08:22:46;8.73;;;5.80;;
44536;SDS011;30245;51.966;6.292;2023-11-22T08:25:14;9.80;;;6.97;;
44536;SDS011;30245;51.966;6.292;2023-11-22T08:27:40;8.43;;;6.13;;
44536;SDS011;30245;51.966;6.292;2023-11-22T08:30:09;8.63;;;6.03;;
44536;SDS011;30245;51.966;6.292;2023-11-22T08:32:39;10.43;;;6.33;;
44536;SDS011;30245;51.966;6.292;2023-11-22T08:35:06;8.10;;;5.77;;
44536;SDS011;30245;51.966;6.292;2023-11-22T08:37:33;8.70;;;6.17;;
44536;SDS011;30245;51.966;6.292;2023-11-22T08:40:00;8.87;;;6.43;;
44536;SDS011;30245;51.966;6.292;2023-11-22T08:42:26;8.83;;;6.37;;
44536;SDS011;30245;51.966;6.292;2023-11-22T08:44:51;7.07;;;4.97;;
44536;SDS011;30245;51.966;6.292;2023-11-22T08:47:17;8.13;;;5.83;;
44536;SDS011;30245;51.966;6.292;2023-11-22T08:49:43;7.87;;;7.10;;
44536;SDS011;30245;51.966;6.292;2023-11-22T08:52:08;8.03;;;6.07;;
44536;SDS011;30245;51.966;6.292;2023-11-22T08:54:34;7.47;;;5.40;;
44536;SDS011;30245;51.966;6.292;2023-11-22T08:57:00;8.87;;;5.40;;
44536;SDS011;30245;51.966;6.292;2023-11-22T08:59:26;6.57;;;5.20;;
44536;SDS011;30245;51.966;6.292;2023-11-22T09:01:51;8.57;;;6.43;;
44536;SDS011;30245;51.966;6.292;2023-11-22T09:04:17;7.40;;;6.03;;
44536;SDS011;30245;51.966;6.292;2023-11-22T09:06:43;6.53;;;5.87;;
44536;SDS011;30245;51.966;6.292;2023-11-22T09:09:09;9.13;;;5.53;;
44536;SDS011;30245;51.966;6.292;2023-11-22T09:11:40;5.67;;;4.67;;
44536;SDS011;30245;51.966;6.292;2023-11-22T09:14:06;7.07;;;6.37;;
44536;SDS011;30245;51.966;6.292;2023-11-22T09:16:35;5.53;;;4.77;;
44536;SDS011;30245;51.966;6.292;2023-11-22T09:19:04;7.27;;;6.20;;
44536;SDS011;30245;51.966;6.292;2023-11-22T09:21:33;9.07;;;6.07;;
44536;SDS011;30245;51.966;6.292;2023-11-22T09:23:58;7.17;;;5.33;;
44536;SDS011;30245;51.966;6.292;2023-11-22T09:26:24;7.00;;;5.60;;
44536;SDS011;30245;51.966;6.292;2023-11-22T09:28:50;6.93;;;5.93;;
44536;SDS011;30245;51.966;6.292;2023-11-22T09:31:15;6.20;;;5.43;;
44536;SDS011;30245;51.966;6.292;2023-11-22T09:33:45;5.63;;;5.03;;
44536;SDS011;30245;51.966;6.292;2023-11-22T09:36:11;7.70;;;5.50;;
44536;SDS011;30245;51.966;6.292;2023-11-22T09:38:37;5.63;;;5.03;;
44536;SDS011;30245;51.966;6.292;2023-11-22T09:41:03;7.57;;;5.23;;
44536;SDS011;30245;51.966;6.292;2023-11-22T09:43:30;5.73;;;5.10;;
44536;SDS011;30245;51.966;6.292;2023-11-22T09:45:55;5.23;;;4.73;;
44536;SDS011;30245;51.966;6.292;2023-11-22T09:48:22;8.33;;;5.73;;
44536;SDS011;30245;51.966;6.292;2023-11-22T09:53:55;7.73;;;4.97;;
44536;SDS011;30245;51.966;6.292;2023-11-22T09:56:25;6.40;;;4.63;;
44536;SDS011;30245;51.966;6.292;2023-11-22T09:58:52;5.30;;;4.20;;
44536;SDS011;30245;51.966;6.292;2023-11-22T10:01:20;8.37;;;5.43;;
44536;SDS011;30245;51.966;6.292;2023-11-22T10:03:49;6.80;;;5.97;;
44536;SDS011;30245;51.966;6.292;2023-11-22T10:06:15;6.73;;;5.60;;
44536;SDS011;30245;51.966;6.292;2023-11-22T10:08:42;8.57;;;6.13;;
44536;SDS011;30245;51.966;6.292;2023-11-22T10:11:09;7.70;;;5.97;;
44536;SDS011;30245;51.966;6.292;2023-11-22T10:13:36;7.47;;;5.83;;
44536;SDS011;30245;51.966;6.292;2023-11-22T10:16:08;6.47;;;4.90;;
44536;SDS011;30245;51.966;6.292;2023-11-22T10:18:38;6.63;;;4.33;;
44536;SDS011;30245;51.966;6.292;2023-11-22T10:21:15;6.90;;;4.20;;
44536;SDS011;30245;51.966;6.292;2023-11-22T10:23:45;5.77;;;4.57;;
44536;SDS011;30245;51.966;6.292;2023-11-22T10:26:12;4.20;;;3.33;;
44536;SDS011;30245;51.966;6.292;2023-11-22T10:28:41;5.32;;;3.78;;
44536;SDS011;30245;51.966;6.292;2023-11-22T10:31:08;7.33;;;4.13;;
44536;SDS011;30245;51.966;6.292;2023-11-22T10:33:38;4.77;;;3.47;;
44536;SDS011;30245;51.966;6.292;2023-11-22T10:36:07;4.93;;;3.70;;
44536;SDS011;30245;51.966;6.292;2023-11-22T10:38:33;5.23;;;3.80;;
44536;SDS011;30245;51.966;6.292;2023-11-22T10:41:03;6.67;;;4.30;;
44536;SDS011;30245;51.966;6.292;2023-11-22T10:43:33;8.03;;;3.93;;
44536;SDS011;30245;51.966;6.292;2023-11-22T10:46:01;7.33;;;3.27;;
44536;SDS011;30245;51.966;6.292;2023-11-22T10:48:27;5.87;;;3.97;;
44536;SDS011;30245;51.966;6.292;2023-11-22T10:50:55;6.27;;;4.43;;
44536;SDS011;30245;51.966;6.292;2023-11-22T10:53:22;6.93;;;5.10;;
44536;SDS011;30245;51.966;6.292;2023-11-22T10:55:59;5.57;;;4.37;;
44536;SDS011;30245;51.966;6.292;2023-11-22T10:58:50;4.20;;;3.07;;
44536;SDS011;30245;51.966;6.292;2023-11-22T11:01:17;4.17;;;3.10;;
44536;SDS011;30245;51.966;6.292;2023-11-22T11:04:03;5.37;;;4.73;;
44536;SDS011;30245;51.966;6.292;2023-11-22T11:06:36;6.13;;;3.70;;
44536;SDS011;30245;51.966;6.292;2023-11-22T11:09:05;5.20;;;3.33;;
44536;SDS011;30245;51.966;6.292;2023-11-22T11:11:34;4.83;;;4.07;;
44536;SDS011;30245;51.966;6.292;2023-11-22T11:14:01;4.43;;;4.00;;
44536;SDS011;30245;51.966;6.292;2023-11-22T11:16:29;8.03;;;4.23;;
44536;SDS011;30245;51.966;6.292;2023-11-22T11:18:59;4.37;;;3.97;;
44536;SDS011;30245;51.966;6.292;2023-11-22T11:21:26;7.30;;;3.97;;
44536;SDS011;30245;51.966;6.292;2023-11-22T11:23:51;6.63;;;4.87;;
44536;SDS011;30245;51.966;6.292;2023-11-22T11:26:19;6.60;;;5.90;;
44536;SDS011;30245;51.966;6.292;2023-11-22T11:28:47;5.97;;;4.20;;
44536;SDS011;30245;51.966;6.292;2023-11-22T11:31:14;6.47;;;4.13;;
44536;SDS011;30245;51.966;6.292;2023-11-22T11:36:15;5.30;;;3.30;;
44536;SDS011;30245;51.966;6.292;2023-11-22T11:38:50;6.63;;;4.20;;
44536;SDS011;30245;51.966;6.292;2023-11-22T11:41:17;5.00;;;3.97;;
44536;SDS011;30245;51.966;6.292;2023-11-22T11:43:43;5.17;;;4.27;;
44536;SDS011;30245;51.966;6.292;2023-11-22T11:46:10;3.50;;;2.95;;
44536;SDS011;30245;51.966;6.292;2023-11-22T11:48:37;3.23;;;2.47;;
44536;SDS011;30245;51.966;6.292;2023-11-22T11:51:03;3.70;;;2.93;;
44536;SDS011;30245;51.966;6.292;2023-11-22T11:53:28;6.17;;;2.97;;
44536;SDS011;30245;51.966;6.292;2023-11-22T11:55:56;6.20;;;3.80;;
44536;SDS011;30245;51.966;6.292;2023-11-22T11:58:23;5.27;;;3.73;;
44536;SDS011;30245;51.966;6.292;2023-11-22T12:00:50;4.03;;;3.37;;
44536;SDS011;30245;51.966;6.292;2023-11-22T12:05:46;5.57;;;3.92;;
44536;SDS011;30245;51.966;6.292;2023-11-22T12:08:12;4.10;;;2.87;;
44536;SDS011;30245;51.966;6.292;2023-11-22T12:10:40;5.15;;;3.88;;
44536;SDS011;30245;51.966;6.292;2023-11-22T12:13:06;3.97;;;3.40;;
44536;SDS011;30245;51.966;6.292;2023-11-22T12:15:33;4.10;;;2.33;;
44536;SDS011;30245;51.966;6.292;2023-11-22T12:17:59;5.70;;;3.43;;
44536;SDS011;30245;51.966;6.292;2023-11-22T12:20:28;2.80;;;2.10;;
44536;SDS011;30245;51.966;6.292;2023-11-22T12:22:59;3.00;;;2.00;;
44536;SDS011;30245;51.966;6.292;2023-11-22T12:25:32;3.70;;;2.47;;
44536;SDS011;30245;51.966;6.292;2023-11-22T12:27:58;3.27;;;2.37;;
44536;SDS011;30245;51.966;6.292;2023-11-22T12:30:33;3.40;;;2.97;;
44536;SDS011;30245;51.966;6.292;2023-11-22T12:33:04;3.60;;;2.13;;
44536;SDS011;30245;51.966;6.292;2023-11-22T12:35:32;3.15;;;2.25;;
44536;SDS011;30245;51.966;6.292;2023-11-22T12:37:59;3.53;;;2.57;;
44536;SDS011;30245;51.966;6.292;2023-11-22T12:40:29;3.53;;;2.70;;
44536;SDS011;30245;51.966;6.292;2023-11-22T12:42:58;2.67;;;1.60;;
44536;SDS011;30245;51.966;6.292;2023-11-22T12:45:24;4.78;;;2.03;;
44536;SDS011;30245;51.966;6.292;2023-11-22T12:47:51;3.03;;;2.13;;
44536;SDS011;30245;51.966;6.292;2023-11-22T12:50:30;3.38;;;2.17;;
44536;SDS011;30245;51.966;6.292;2023-11-22T12:52:57;2.80;;;1.50;;
44536;SDS011;30245;51.966;6.292;2023-11-22T12:55:45;4.07;;;1.98;;
44536;SDS011;30245;51.966;6.292;2023-11-22T12:58:13;4.80;;;2.33;;
44536;SDS011;30245;51.966;6.292;2023-11-22T13:00:39;8.05;;;1.77;;
44536;SDS011;30245;51.966;6.292;2023-11-22T13:03:05;2.03;;;0.98;;
44536;SDS011;30245;51.966;6.292;2023-11-22T13:05:38;2.53;;;1.80;;
44536;SDS011;30245;51.966;6.292;2023-11-22T13:08:11;2.88;;;1.55;;
44536;SDS011;30245;51.966;6.292;2023-11-22T13:10:47;4.88;;;1.90;;
44536;SDS011;30245;51.966;6.292;2023-11-22T13:13:22;3.38;;;2.20;;
44536;SDS011;30245;51.966;6.292;2023-11-22T13:15:48;2.42;;;2.00;;
44536;SDS011;30245;51.966;6.292;2023-11-22T13:18:16;5.15;;;3.40;;
44536;SDS011;30245;51.966;6.292;2023-11-22T13:20:43;3.30;;;2.92;;
44536;SDS011;30245;51.966;6.292;2023-11-22T13:23:09;5.40;;;3.20;;
44536;SDS011;30245;51.966;6.292;2023-11-22T13:25:35;3.97;;;3.50;;
44536;SDS011;30245;51.966;6.292;2023-11-22T13:28:01;5.53;;;4.17;;
44536;SDS011;30245;51.966;6.292;2023-11-22T13:30:27;4.77;;;3.97;;
44536;SDS011;30245;51.966;6.292;2023-11-22T13:32:54;5.77;;;4.43;;
44536;SDS011;30245;51.966;6.292;2023-11-22T13:35:23;8.23;;;4.57;;
44536;SDS011;30245;51.966;6.292;2023-11-22T13:37:56;6.37;;;4.70;;
44536;SDS011;30245;51.966;6.292;2023-11-22T13:40:26;7.60;;;5.27;;
44536;SDS011;30245;51.966;6.292;2023-11-22T13:42:55;6.95;;;4.72;;
44536;SDS011;30245;51.966;6.292;2023-11-22T13:45:21;5.90;;;4.67;;
44536;SDS011;30245;51.966;6.292;2023-11-22T13:47:48;8.00;;;4.50;;
44536;SDS011;30245;51.966;6.292;2023-11-22T13:50:15;6.57;;;5.33;;
44536;SDS011;30245;51.966;6.292;2023-11-22T13:52:50;8.07;;;5.10;;
44536;SDS011;30245;51.966;6.292;2023-11-22T13:55:16;6.33;;;4.80;;
44536;SDS011;30245;51.966;6.292;2023-11-22T13:57:49;6.47;;;4.90;;
44536;SDS011;30245;51.966;6.292;2023-11-22T14:00:18;5.47;;;3.90;;
44536;SDS011;30245;51.966;6.292;2023-11-22T14:02:48;5.07;;;4.13;;
44536;SDS011;30245;51.966;6.292;2023-11-22T14:07:42;9.90;;;4.93;;
44536;SDS011;30245;51.966;6.292;2023-11-22T14:10:09;6.97;;;5.17;;
44536;SDS011;30245;51.966;6.292;2023-11-22T14:12:35;8.33;;;5.80;;
44536;SDS011;30245;51.966;6.292;2023-11-22T14:15:02;8.87;;;6.93;;
44536;SDS011;30245;51.966;6.292;2023-11-22T14:17:31;10.03;;;6.87;;
44536;SDS011;30245;51.966;6.292;2023-11-22T14:19:57;6.93;;;5.63;;
44536;SDS011;30245;51.966;6.292;2023-11-22T14:22:23;9.53;;;6.30;;
44536;SDS011;30245;51.966;6.292;2023-11-22T14:24:49;9.07;;;5.63;;
44536;SDS011;30245;51.966;6.292;2023-11-22T14:27:18;8.80;;;7.20;;
44536;SDS011;30245;51.966;6.292;2023-11-22T14:29:44;8.07;;;6.87;;
44536;SDS011;30245;51.966;6.292;2023-11-22T14:34:38;10.53;;;6.67;;
44536;SDS011;30245;51.966;6.292;2023-11-22T14:37:05;9.47;;;6.20;;
44536;SDS011;30245;51.966;6.292;2023-11-22T14:39:31;7.97;;;5.90;;
44536;SDS011;30245;51.966;6.292;2023-11-22T14:41:58;9.67;;;6.60;;
44536;SDS011;30245;51.966;6.292;2023-11-22T14:44:24;11.20;;;7.50;;
44536;SDS011;30245;51.966;6.292;2023-11-22T14:46:50;11.20;;;8.37;;
44536;SDS011;30245;51.966;6.292;2023-11-22T14:49:16;12.40;;;8.23;;
44536;SDS011;30245;51.966;6.292;2023-11-22T14:51:41;11.80;;;7.90;;
44536;SDS011;30245;51.966;6.292;2023-11-22T14:54:07;14.17;;;9.07;;
44536;SDS011;30245;51.966;6.292;2023-11-22T14:56:33;15.23;;;9.97;;
44536;SDS011;30245;51.966;6.292;2023-11-22T14:58:59;14.57;;;8.90;;